Airfield :
LOGIN :

Register | Disclaimer

   EN    FR    IT 

 










Legend :    VFR   Marginal VFR   IFR   Intensive IFR   Very Intensive IFR
Visi :
Ceiling :
>= 8 km
>= 3000ft
5 to 8 km
1000 to 3000 ft
1500m to 5 km
500 to 1000 ft
800 to 1500m
200 to 500 ft
< 800m
< 200 ft
Symbols :   Thunderstorms  Fog  Heavy snow  Heavy precipitations  Wind > 20 kt
SIGMETs :     Misc.  Thunderstorms  Icing  Turbulence  Mountain Waves  Volcanic Ashes






- Airport Elevation : 1416 ft
- IATA code : ZRH


LSZH - Zurich

CURRENT METAR :
  • 170620Z 27011KT 9999 -SHSN FEW006 BKN012 BKN028 01/M01 Q1016 R10/5920 R14/5903// R16/5903// NOSIG

EXPIRED METARs :
  • 170550Z 29008KT 250V330 9999 -SHSN SCT009 BKN012 01/M01 Q1016 R10/5920// R14/5920// R16/5903// NOSIG
  • 170520Z VRB04KT 9999 -SN SCT011 BKN012 01/M01 Q1016 R10/5920// R14/5920// R16/5903// NOSIG
  • 170450Z 25007KT 220V310 9999 -SN SCT011 BKN014 01/M01 Q1016 R88/5903 NOSIG
  • 170420Z 23010KT 190V270 5000 -SN FEW009 SCT013 BKN015 01/M01 Q1016 R88/5903// TEMPO 2500 SN VV014
  • 170350Z 23007KT 200V270 4500 -SN FEW009 SCT013 BKN016 00/M01 Q1016 R88/5903// TEMPO 2500 SN VV014

TAF TAF LSZH
Valid from the 17 at 06:00 until the 18 at 12:00 UTC


170525Z 1706/1812 25010KT 8000 -SN SCT011 BKN012 TX01/1715Z TN01/1706Z TN00/1801Z
TEMPO 1706/1709 4000 BR BKN015
PROB40
TEMPO 1707/1710 2000 -SNRA BKN005
BECMG 1709/1711 NSW
TEMPO 1710/1716 2000 SHSN BKN005
PROB40
TEMPO 1710/1716 29010KT
PROB30
TEMPO 1716/1806 2000 -SHSN BKN005
ATIS : +41 43 816 2295 (DEP) +41 43 816 2294 (ARR)



MET'MAP, your aeronautical weather chart ! - Copyright ORBIFLY December 2007 - Disclaimer

ORBIFLY MET'MAP TEAM :

Programming & Development : Alexandra Zaïnal
Concept & original design : Baudouin d'Aumeries
Assistance for programming : Marc-Olivier Méhu
Technical & hardware support : Manuel Goepfert

Contact : metmap@orbifly.com




SOURCES & CREDITS :

   NOAA